sensor_id;sensor_type;location;lat;lon;timestamp;pressure;altitude;pressure_sealevel;temperature;humidity
67987;BME280;54767;53.800;15.956;2023-08-21T00:02:07;100934.21;;;18.05;76.35
67987;BME280;54767;53.800;15.956;2023-08-21T00:04:34;100933.02;;;18.03;76.40
67987;BME280;54767;53.800;15.956;2023-08-21T00:07:01;100930.77;;;18.00;76.51
67987;BME280;54767;53.800;15.956;2023-08-21T00:09:28;100927.25;;;17.99;76.53
67987;BME280;54767;53.800;15.956;2023-08-21T00:11:55;100927.65;;;17.96;76.52
67987;BME280;54767;53.800;15.956;2023-08-21T00:14:22;100922.20;;;17.94;76.55
67987;BME280;54767;53.800;15.956;2023-08-21T00:16:49;100922.26;;;17.91;76.35
67987;BME280;54767;53.800;15.956;2023-08-21T00:19:16;100924.60;;;17.88;76.33
67987;BME280;54767;53.800;15.956;2023-08-21T00:21:43;100920.95;;;17.84;76.33
67987;BME280;54767;53.800;15.956;2023-08-21T00:24:10;100921.36;;;17.81;76.43
67987;BME280;54767;53.800;15.956;2023-08-21T00:26:37;100916.44;;;17.78;76.40
67987;BME280;54767;53.800;15.956;2023-08-21T00:29:04;100914.16;;;17.76;76.44
67987;BME280;54767;53.800;15.956;2023-08-21T00:31:31;100914.36;;;17.74;76.50
67987;BME280;54767;53.800;15.956;2023-08-21T00:33:58;100916.52;;;17.71;76.44
67987;BME280;54767;53.800;15.956;2023-08-21T00:36:25;100917.09;;;17.69;76.53
67987;BME280;54767;53.800;15.956;2023-08-21T00:38:53;100916.63;;;17.65;76.65
67987;BME280;54767;53.800;15.956;2023-08-21T00:41:20;100925.50;;;17.63;76.77
67987;BME280;54767;53.800;15.956;2023-08-21T00:43:47;100927.48;;;17.61;76.61
67987;BME280;54767;53.800;15.956;2023-08-21T00:46:14;100930.36;;;17.58;76.53
67987;BME280;54767;53.800;15.956;2023-08-21T00:48:43;100932.70;;;17.56;76.53
67987;BME280;54767;53.800;15.956;2023-08-21T00:51:11;100935.92;;;17.54;76.54
67987;BME280;54767;53.800;15.956;2023-08-21T00:53:41;100938.80;;;17.51;76.62
67987;BME280;54767;53.800;15.956;2023-08-21T00:56:09;100942.37;;;17.48;76.70
67987;BME280;54767;53.800;15.956;2023-08-21T00:58:36;100941.02;;;17.45;76.63
67987;BME280;54767;53.800;15.956;2023-08-21T01:01:03;100948.64;;;17.43;76.59
67987;BME280;54767;53.800;15.956;2023-08-21T01:03:31;100943.20;;;17.40;76.62
67987;BME280;54767;53.800;15.956;2023-08-21T01:05:58;100942.18;;;17.37;76.71
67987;BME280;54767;53.800;15.956;2023-08-21T01:11:18;100946.70;;;17.32;76.73
67987;BME280;54767;53.800;15.956;2023-08-21T01:16:21;100946.78;;;17.26;76.64
67987;BME280;54767;53.800;15.956;2023-08-21T01:18:49;100947.34;;;17.23;76.53
67987;BME280;54767;53.800;15.956;2023-08-21T01:21:17;100947.56;;;17.21;76.51
67987;BME280;54767;53.800;15.956;2023-08-21T01:23:44;100939.98;;;17.18;76.50
67987;BME280;54767;53.800;15.956;2023-08-21T01:26:11;100942.32;;;17.15;76.57
67987;BME280;54767;53.800;15.956;2023-08-21T01:28:38;100945.02;;;17.13;76.66
67987;BME280;54767;53.800;15.956;2023-08-21T01:33:42;100942.05;;;17.09;76.62
67987;BME280;54767;53.800;15.956;2023-08-21T01:36:11;100943.66;;;17.07;76.53
67987;BME280;54767;53.800;15.956;2023-08-21T01:38:38;100945.66;;;17.04;76.59
67987;BME280;54767;53.800;15.956;2023-08-21T01:41:05;100947.28;;;17.03;76.71
67987;BME280;54767;53.800;15.956;2023-08-21T01:43:32;100945.01;;;17.00;76.77
67987;BME280;54767;53.800;15.956;2023-08-21T01:46:01;100946.61;;;16.99;76.90
67987;BME280;54767;53.800;15.956;2023-08-21T01:48:29;100949.30;;;16.97;76.77
67987;BME280;54767;53.800;15.956;2023-08-21T01:50:56;100948.95;;;16.95;76.63
67987;BME280;54767;53.800;15.956;2023-08-21T01:53:23;100945.46;;;16.92;76.61
67987;BME280;54767;53.800;15.956;2023-08-21T01:55:50;100937.71;;;16.90;76.60
67987;BME280;54767;53.800;15.956;2023-08-21T01:58:17;100939.67;;;16.87;76.64
67987;BME280;54767;53.800;15.956;2023-08-21T02:00:47;100940.41;;;16.86;76.71
67987;BME280;54767;53.800;15.956;2023-08-21T02:03:14;100937.27;;;16.83;76.74
67987;BME280;54767;53.800;15.956;2023-08-21T02:05:42;100928.64;;;16.81;76.68
67987;BME280;54767;53.800;15.956;2023-08-21T02:08:13;100925.83;;;16.79;76.70
67987;BME280;54767;53.800;15.956;2023-08-21T02:10:50;100929.56;;;16.77;76.68
67987;BME280;54767;53.800;15.956;2023-08-21T02:13:18;100930.99;;;16.74;76.57
67987;BME280;54767;53.800;15.956;2023-08-21T02:15:46;100929.59;;;16.71;76.54
67987;BME280;54767;53.800;15.956;2023-08-21T02:18:13;100928.55;;;16.69;76.53
67987;BME280;54767;53.800;15.956;2023-08-21T02:20:40;100928.05;;;16.68;76.64
67987;BME280;54767;53.800;15.956;2023-08-21T02:23:07;100929.66;;;16.65;76.65
67987;BME280;54767;53.800;15.956;2023-08-21T02:25:34;100927.05;;;16.63;76.59
67987;BME280;54767;53.800;15.956;2023-08-21T02:28:01;100925.65;;;16.62;76.65
67987;BME280;54767;53.800;15.956;2023-08-21T02:30:30;100919.84;;;16.59;76.75
67987;BME280;54767;53.800;15.956;2023-08-21T02:32:57;100917.59;;;16.57;76.83
67987;BME280;54767;53.800;15.956;2023-08-21T02:35:25;100911.41;;;16.56;76.77
67987;BME280;54767;53.800;15.956;2023-08-21T02:37:52;100914.27;;;16.55;76.88
67987;BME280;54767;53.800;15.956;2023-08-21T02:40:19;100916.91;;;16.53;76.82
67987;BME280;54767;53.800;15.956;2023-08-21T02:42:46;100914.65;;;16.50;76.80
67987;BME280;54767;53.800;15.956;2023-08-21T02:45:13;100914.66;;;16.49;76.91
67987;BME280;54767;53.800;15.956;2023-08-21T02:47:40;100909.92;;;16.46;76.85
67987;BME280;54767;53.800;15.956;2023-08-21T02:50:09;100914.71;;;16.45;77.07
67987;BME280;54767;53.800;15.956;2023-08-21T02:52:36;100909.45;;;16.42;76.95
67987;BME280;54767;53.800;15.956;2023-08-21T02:55:05;100910.70;;;16.40;76.98
67987;BME280;54767;53.800;15.956;2023-08-21T02:57:32;100915.48;;;16.39;76.97
67987;BME280;54767;53.800;15.956;2023-08-21T02:59:59;100913.73;;;16.37;76.99
67987;BME280;54767;53.800;15.956;2023-08-21T03:02:26;100907.77;;;16.36;76.83
67987;BME280;54767;53.800;15.956;2023-08-21T03:04:54;100904.95;;;16.34;76.69
67987;BME280;54767;53.800;15.956;2023-08-21T03:07:21;100900.89;;;16.33;76.67
67987;BME280;54767;53.800;15.956;2023-08-21T03:09:48;100903.38;;;16.31;76.77
67987;BME280;54767;53.800;15.956;2023-08-21T03:12:15;100895.65;;;16.28;76.72
67987;BME280;54767;53.800;15.956;2023-08-21T03:14:42;100896.91;;;16.25;76.73
67987;BME280;54767;53.800;15.956;2023-08-21T03:17:09;100897.64;;;16.23;76.77
67987;BME280;54767;53.800;15.956;2023-08-21T03:19:37;100899.95;;;16.22;76.74
67987;BME280;54767;53.800;15.956;2023-08-21T03:22:03;100898.02;;;16.21;76.69
67987;BME280;54767;53.800;15.956;2023-08-21T03:24:30;100899.25;;;16.20;76.68
67987;BME280;54767;53.800;15.956;2023-08-21T03:26:57;100895.90;;;16.20;76.64
67987;BME280;54767;53.800;15.956;2023-08-21T03:29:24;100890.27;;;16.19;76.60
67987;BME280;54767;53.800;15.956;2023-08-21T03:31:53;100889.23;;;16.17;76.65
67987;BME280;54767;53.800;15.956;2023-08-21T03:34:21;100887.85;;;16.15;76.57
67987;BME280;54767;53.800;15.956;2023-08-21T03:36:48;100882.56;;;16.12;76.51
67987;BME280;54767;53.800;15.956;2023-08-21T03:39:15;100881.16;;;16.11;76.70
67987;BME280;54767;53.800;15.956;2023-08-21T03:41:42;100881.20;;;16.09;76.68
67987;BME280;54767;53.800;15.956;2023-08-21T03:44:09;100883.67;;;16.07;76.60
67987;BME280;54767;53.800;15.956;2023-08-21T03:46:36;100882.64;;;16.05;76.63
67987;BME280;54767;53.800;15.956;2023-08-21T03:49:04;100885.64;;;16.03;76.54
67987;BME280;54767;53.800;15.956;2023-08-21T03:51:31;100882.32;;;16.01;76.67
67987;BME280;54767;53.800;15.956;2023-08-21T03:53:58;100883.05;;;16.00;76.66
67987;BME280;54767;53.800;15.956;2023-08-21T03:56:28;100883.95;;;15.99;76.78
67987;BME280;54767;53.800;15.956;2023-08-21T03:58:56;100877.95;;;15.98;76.77
67987;BME280;54767;53.800;15.956;2023-08-21T04:01:24;100882.55;;;15.96;76.74
67987;BME280;54767;53.800;15.956;2023-08-21T04:03:51;100886.09;;;15.96;76.89
67987;BME280;54767;53.800;15.956;2023-08-21T04:06:18;100888.91;;;15.96;76.93
67987;BME280;54767;53.800;15.956;2023-08-21T04:08:45;100889.45;;;15.95;76.93
67987;BME280;54767;53.800;15.956;2023-08-21T04:11:12;100891.92;;;15.95;77.07
67987;BME280;54767;53.800;15.956;2023-08-21T04:13:39;100893.17;;;15.93;77.05
67987;BME280;54767;53.800;15.956;2023-08-21T04:16:06;100892.48;;;15.92;77.17
67987;BME280;54767;53.800;15.956;2023-08-21T04:18:33;100891.96;;;15.91;77.06
67987;BME280;54767;53.800;15.956;2023-08-21T04:21:08;100894.09;;;15.90;77.07
67987;BME280;54767;53.800;15.956;2023-08-21T04:23:36;100895.14;;;15.90;77.16
67987;BME280;54767;53.800;15.956;2023-08-21T04:26:04;100895.15;;;15.89;77.21
67987;BME280;54767;53.800;15.956;2023-08-21T04:28:32;100894.96;;;15.90;77.29
67987;BME280;54767;53.800;15.956;2023-08-21T04:31:00;100897.96;;;15.91;77.40
67987;BME280;54767;53.800;15.956;2023-08-21T04:33:28;100902.90;;;15.92;77.46
67987;BME280;54767;53.800;15.956;2023-08-21T04:35:55;100901.30;;;15.93;77.55
67987;BME280;54767;53.800;15.956;2023-08-21T04:38:22;100904.30;;;15.95;77.58
67987;BME280;54767;53.800;15.956;2023-08-21T04:40:49;100905.52;;;15.97;77.61
67987;BME280;54767;53.800;15.956;2023-08-21T04:43:17;100907.76;;;15.99;77.68
67987;BME280;54767;53.800;15.956;2023-08-21T04:45:48;100906.34;;;16.01;77.77
67987;BME280;54767;53.800;15.956;2023-08-21T04:48:16;100907.91;;;16.03;77.80
67987;BME280;54767;53.800;15.956;2023-08-21T04:50:43;100905.75;;;16.07;77.98
67987;BME280;54767;53.800;15.956;2023-08-21T04:53:10;100906.23;;;16.12;77.97
67987;BME280;54767;53.800;15.956;2023-08-21T04:55:37;100905.12;;;16.17;78.13
67987;BME280;54767;53.800;15.956;2023-08-21T04:58:07;100905.95;;;16.22;78.06
67987;BME280;54767;53.800;15.956;2023-08-21T05:00:35;100908.89;;;16.27;78.17
67987;BME280;54767;53.800;15.956;2023-08-21T05:03:02;100909.36;;;16.33;78.22
67987;BME280;54767;53.800;15.956;2023-08-21T05:05:29;100911.92;;;16.41;78.07
67987;BME280;54767;53.800;15.956;2023-08-21T05:07:57;100914.47;;;16.50;78.22
67987;BME280;54767;53.800;15.956;2023-08-21T05:10:24;100912.95;;;16.60;78.27
67987;BME280;54767;53.800;15.956;2023-08-21T05:12:57;100920.25;;;16.69;78.24
67987;BME280;54767;53.800;15.956;2023-08-21T05:15:55;100919.09;;;16.81;78.21
67987;BME280;54767;53.800;15.956;2023-08-21T05:18:23;100921.95;;;16.91;77.98
67987;BME280;54767;53.800;15.956;2023-08-21T05:20:53;100919.90;;;17.00;77.89
67987;BME280;54767;53.800;15.956;2023-08-21T05:23:21;100917.66;;;17.09;77.71
67987;BME280;54767;53.800;15.956;2023-08-21T05:25:48;100915.05;;;17.17;77.68
67987;BME280;54767;53.800;15.956;2023-08-21T05:28:15;100916.86;;;17.27;77.66
67987;BME280;54767;53.800;15.956;2023-08-21T05:30:42;100915.66;;;17.36;77.52
67987;BME280;54767;53.800;15.956;2023-08-21T05:33:09;100917.14;;;17.45;77.47
67987;BME280;54767;53.800;15.956;2023-08-21T05:35:36;100917.69;;;17.54;77.25
67987;BME280;54767;53.800;15.956;2023-08-21T05:38:04;100916.66;;;17.63;77.31
67987;BME280;54767;53.800;15.956;2023-08-21T05:40:31;100907.29;;;17.73;77.19
67987;BME280;54767;53.800;15.956;2023-08-21T05:42:58;100909.10;;;17.83;76.99
67987;BME280;54767;53.800;15.956;2023-08-21T05:45:25;100913.53;;;17.93;76.97
67987;BME280;54767;53.800;15.956;2023-08-21T05:47:52;100912.29;;;18.03;76.88
67987;BME280;54767;53.800;15.956;2023-08-21T05:50:19;100913.89;;;18.13;76.77
67987;BME280;54767;53.800;15.956;2023-08-21T05:52:46;100908.21;;;18.23;76.63
67987;BME280;54767;53.800;15.956;2023-08-21T05:55:13;100911.55;;;18.34;76.82
67987;BME280;54767;53.800;15.956;2023-08-21T05:57:40;100905.66;;;18.45;76.64
67987;BME280;54767;53.800;15.956;2023-08-21T06:00:08;100909.25;;;18.60;76.92
67987;BME280;54767;53.800;15.956;2023-08-21T06:02:35;100912.36;;;18.83;77.38
67987;BME280;54767;53.800;15.956;2023-08-21T06:05:03;100912.13;;;19.02;76.60
67987;BME280;54767;53.800;15.956;2023-08-21T06:07:32;100910.61;;;19.13;76.62
67987;BME280;54767;53.800;15.956;2023-08-21T06:09:59;100911.64;;;19.23;76.32
67987;BME280;54767;53.800;15.956;2023-08-21T06:12:26;100916.55;;;19.34;75.85
67987;BME280;54767;53.800;15.956;2023-08-21T06:14:53;100920.83;;;19.40;75.66
67987;BME280;54767;53.800;15.956;2023-08-21T06:17:20;100921.78;;;19.45;75.45
67987;BME280;54767;53.800;15.956;2023-08-21T06:19:48;100924.91;;;19.48;75.18
67987;BME280;54767;53.800;15.956;2023-08-21T06:22:15;100927.62;;;19.54;74.98
67987;BME280;54767;53.800;15.956;2023-08-21T06:24:42;100930.85;;;19.59;74.99
67987;BME280;54767;53.800;15.956;2023-08-21T06:27:09;100928.64;;;19.63;74.84
67987;BME280;54767;53.800;15.956;2023-08-21T06:29:36;100927.19;;;19.65;74.42
67987;BME280;54767;53.800;15.956;2023-08-21T06:32:04;100929.47;;;19.67;74.67
67987;BME280;54767;53.800;15.956;2023-08-21T06:34:31;100935.11;;;19.69;74.65
67987;BME280;54767;53.800;15.956;2023-08-21T06:36:58;100933.86;;;19.69;74.49
67987;BME280;54767;53.800;15.956;2023-08-21T06:39:25;100935.64;;;19.68;74.53
67987;BME280;54767;53.800;15.956;2023-08-21T06:41:52;100940.38;;;19.71;74.51
67987;BME280;54767;53.800;15.956;2023-08-21T06:44:20;100940.69;;;19.73;74.54
67987;BME280;54767;53.800;15.956;2023-08-21T06:46:47;100940.38;;;19.78;74.97
67987;BME280;54767;53.800;15.956;2023-08-21T06:49:14;100932.06;;;19.84;74.81
67987;BME280;54767;53.800;15.956;2023-08-21T06:51:41;100928.38;;;19.89;75.22
67987;BME280;54767;53.800;15.956;2023-08-21T06:54:08;100919.88;;;19.96;75.30
67987;BME280;54767;53.800;15.956;2023-08-21T06:56:35;100923.58;;;20.03;75.09
67987;BME280;54767;53.800;15.956;2023-08-21T06:59:02;100926.74;;;20.11;75.42
67987;BME280;54767;53.800;15.956;2023-08-21T07:01:29;100930.98;;;20.19;75.54
67987;BME280;54767;53.800;15.956;2023-08-21T07:03:56;100931.50;;;20.26;75.34
67987;BME280;54767;53.800;15.956;2023-08-21T07:06:23;100934.73;;;20.32;75.21
67987;BME280;54767;53.800;15.956;2023-08-21T07:08:50;100930.13;;;20.37;75.05
67987;BME280;54767;53.800;15.956;2023-08-21T07:11:17;100931.94;;;20.42;74.52
67987;BME280;54767;53.800;15.956;2023-08-21T07:13:44;100931.33;;;20.45;74.45
67987;BME280;54767;53.800;15.956;2023-08-21T07:16:10;100928.05;;;20.48;74.49
67987;BME280;54767;53.800;15.956;2023-08-21T07:18:38;100935.42;;;20.52;74.46
67987;BME280;54767;53.800;15.956;2023-08-21T07:21:05;100938.16;;;20.56;74.46
67987;BME280;54767;53.800;15.956;2023-08-21T07:23:48;100945.00;;;20.60;74.43
67987;BME280;54767;53.800;15.956;2023-08-21T07:26:16;100945.29;;;20.63;74.16
67987;BME280;54767;53.800;15.956;2023-08-21T07:28:43;100945.73;;;20.66;74.02
67987;BME280;54767;53.800;15.956;2023-08-21T07:31:10;100944.73;;;20.69;73.83
67987;BME280;54767;53.800;15.956;2023-08-21T07:33:37;100941.46;;;20.72;73.94
67987;BME280;54767;53.800;15.956;2023-08-21T07:36:11;100944.39;;;20.75;74.10
67987;BME280;54767;53.800;15.956;2023-08-21T07:38:53;100947.29;;;20.79;74.19
67987;BME280;54767;53.800;15.956;2023-08-21T07:41:30;100947.38;;;20.82;74.03
67987;BME280;54767;53.800;15.956;2023-08-21T07:43:57;100940.05;;;20.84;73.94
67987;BME280;54767;53.800;15.956;2023-08-21T07:46:24;100941.18;;;20.87;74.25
67987;BME280;54767;53.800;15.956;2023-08-21T07:48:52;100939.02;;;20.88;73.72
67987;BME280;54767;53.800;15.956;2023-08-21T07:51:19;100941.40;;;20.86;73.37
67987;BME280;54767;53.800;15.956;2023-08-21T07:53:46;100943.13;;;20.82;73.29
67987;BME280;54767;53.800;15.956;2023-08-21T07:56:13;100943.14;;;20.81;73.41
67987;BME280;54767;53.800;15.956;2023-08-21T07:58:41;100945.51;;;20.86;73.80
67987;BME280;54767;53.800;15.956;2023-08-21T08:01:08;100942.13;;;20.92;73.99
67987;BME280;54767;53.800;15.956;2023-08-21T08:03:43;100944.03;;;20.99;73.90
67987;BME280;54767;53.800;15.956;2023-08-21T08:06:11;100939.44;;;21.04;73.70
67987;BME280;54767;53.800;15.956;2023-08-21T08:08:38;100939.13;;;21.09;73.64
67987;BME280;54767;53.800;15.956;2023-08-21T08:11:06;100944.56;;;21.11;73.62
67987;BME280;54767;53.800;15.956;2023-08-21T08:13:35;100944.78;;;21.16;73.36
67987;BME280;54767;53.800;15.956;2023-08-21T08:16:04;100942.70;;;21.19;73.17
67987;BME280;54767;53.800;15.956;2023-08-21T08:18:31;100943.07;;;21.25;73.52
67987;BME280;54767;53.800;15.956;2023-08-21T08:20:58;100941.77;;;21.33;73.67
67987;BME280;54767;53.800;15.956;2023-08-21T08:23:27;100946.45;;;21.38;73.08
67987;BME280;54767;53.800;15.956;2023-08-21T08:25:55;100943.63;;;21.37;72.47
67987;BME280;54767;53.800;15.956;2023-08-21T08:28:22;100945.35;;;21.39;72.66
67987;BME280;54767;53.800;15.956;2023-08-21T08:30:50;100951.80;;;21.42;72.45
67987;BME280;54767;53.800;15.956;2023-08-21T08:33:17;100949.27;;;21.45;71.82
67987;BME280;54767;53.800;15.956;2023-08-21T08:35:45;100948.05;;;21.49;71.82
67987;BME280;54767;53.800;15.956;2023-08-21T08:38:16;100955.20;;;21.54;71.75
67987;BME280;54767;53.800;15.956;2023-08-21T08:40:48;100956.34;;;21.57;71.58
67987;BME280;54767;53.800;15.956;2023-08-21T08:43:18;100959.77;;;21.61;71.58
67987;BME280;54767;53.800;15.956;2023-08-21T08:45:47;100956.84;;;21.64;71.25
67987;BME280;54767;53.800;15.956;2023-08-21T08:48:22;100953.52;;;21.62;70.89
67987;BME280;54767;53.800;15.956;2023-08-21T08:50:51;100946.92;;;21.62;70.83
67987;BME280;54767;53.800;15.956;2023-08-21T08:53:19;100946.77;;;21.61;70.82
67987;BME280;54767;53.800;15.956;2023-08-21T08:55:48;100942.33;;;21.61;71.06
67987;BME280;54767;53.800;15.956;2023-08-21T08:58:17;100929.16;;;21.66;71.18
67987;BME280;54767;53.800;15.956;2023-08-21T09:00:46;100926.77;;;21.73;71.04
67987;BME280;54767;53.800;15.956;2023-08-21T09:03:14;100924.58;;;21.81;70.96
67987;BME280;54767;53.800;15.956;2023-08-21T09:05:43;100924.52;;;21.82;70.58
67987;BME280;54767;53.800;15.956;2023-08-21T09:08:12;100925.59;;;21.82;70.38
67987;BME280;54767;53.800;15.956;2023-08-21T09:10:40;100928.02;;;21.84;70.58
67987;BME280;54767;53.800;15.956;2023-08-21T09:13:12;100931.41;;;21.89;70.52
67987;BME280;54767;53.800;15.956;2023-08-21T09:15:42;100925.34;;;21.95;70.44
67987;BME280;54767;53.800;15.956;2023-08-21T09:18:10;100928.27;;;22.03;70.27
67987;BME280;54767;53.800;15.956;2023-08-21T09:20:39;100933.98;;;22.13;70.44
67987;BME280;54767;53.800;15.956;2023-08-21T09:23:06;100932.54;;;22.20;70.06
67987;BME280;54767;53.800;15.956;2023-08-21T09:25:40;100936.65;;;22.24;69.79
67987;BME280;54767;53.800;15.956;2023-08-21T09:28:08;100932.09;;;22.27;69.13
67987;BME280;54767;53.800;15.956;2023-08-21T09:30:50;100927.65;;;22.27;68.82
67987;BME280;54767;53.800;15.956;2023-08-21T09:33:18;100928.65;;;22.29;68.89
67987;BME280;54767;53.800;15.956;2023-08-21T09:35:46;100924.05;;;22.33;68.71
67987;BME280;54767;53.800;15.956;2023-08-21T09:38:14;100922.33;;;22.36;68.56
67987;BME280;54767;53.800;15.956;2023-08-21T09:40:42;100917.77;;;22.39;68.52
67987;BME280;54767;53.800;15.956;2023-08-21T09:43:10;100913.10;;;22.45;68.62
67987;BME280;54767;53.800;15.956;2023-08-21T09:45:40;100916.40;;;22.52;68.71
67987;BME280;54767;53.800;15.956;2023-08-21T09:48:08;100916.80;;;22.56;68.35
67987;BME280;54767;53.800;15.956;2023-08-21T09:50:36;100917.52;;;22.60;68.22
67987;BME280;54767;53.800;15.956;2023-08-21T09:53:05;100917.05;;;22.64;67.89
67987;BME280;54767;53.800;15.956;2023-08-21T09:55:33;100916.42;;;22.66;67.87
67987;BME280;54767;53.800;15.956;2023-08-21T09:58:01;100912.78;;;22.68;67.28
67987;BME280;54767;53.800;15.956;2023-08-21T10:00:30;100916.64;;;22.70;67.19
67987;BME280;54767;53.800;15.956;2023-08-21T10:03:03;100913.95;;;22.70;67.04
67987;BME280;54767;53.800;15.956;2023-08-21T10:05:35;100914.27;;;22.71;66.83
67987;BME280;54767;53.800;15.956;2023-08-21T10:08:07;100909.79;;;22.71;66.98
67987;BME280;54767;53.800;15.956;2023-08-21T10:10:38;100907.46;;;22.72;66.62
67987;BME280;54767;53.800;15.956;2023-08-21T10:13:07;100906.82;;;22.70;66.28
67987;BME280;54767;53.800;15.956;2023-08-21T10:15:39;100910.13;;;22.67;66.20
67987;BME280;54767;53.800;15.956;2023-08-21T10:18:24;100905.73;;;22.65;66.32
67987;BME280;54767;53.800;15.956;2023-08-21T10:21:26;100910.07;;;22.64;66.41
67987;BME280;54767;53.800;15.956;2023-08-21T10:23:59;100910.63;;;22.63;66.42
67987;BME280;54767;53.800;15.956;2023-08-21T10:26:28;100910.60;;;22.64;66.27
67987;BME280;54767;53.800;15.956;2023-08-21T10:29:02;100906.70;;;22.64;65.97
67987;BME280;54767;53.800;15.956;2023-08-21T10:31:38;100905.96;;;22.64;65.79
67987;BME280;54767;53.800;15.956;2023-08-21T10:34:12;100905.79;;;22.64;65.51
67987;BME280;54767;53.800;15.956;2023-08-21T10:39:34;100908.63;;;22.69;65.79
67987;BME280;54767;53.800;15.956;2023-08-21T10:42:38;100915.97;;;22.69;65.81
67987;BME280;54767;53.800;15.956;2023-08-21T10:45:13;100913.02;;;22.71;66.08
67987;BME280;54767;53.800;15.956;2023-08-21T10:47:44;100908.83;;;22.74;66.12
67987;BME280;54767;53.800;15.956;2023-08-21T10:50:32;100912.15;;;22.79;66.13
67987;BME280;54767;53.800;15.956;2023-08-21T10:53:01;100904.52;;;22.88;65.99
67987;BME280;54767;53.800;15.956;2023-08-21T10:55:29;100904.75;;;22.97;65.62
67987;BME280;54767;53.800;15.956;2023-08-21T10:57:57;100901.21;;;23.00;64.70
67987;BME280;54767;53.800;15.956;2023-08-21T11:00:24;100905.73;;;23.08;64.99
67987;BME280;54767;53.800;15.956;2023-08-21T11:02:51;100901.11;;;23.17;64.89
67987;BME280;54767;53.800;15.956;2023-08-21T11:05:18;100909.52;;;23.25;65.09
67987;BME280;54767;53.800;15.956;2023-08-21T11:07:47;100903.58;;;23.32;64.96
67987;BME280;54767;53.800;15.956;2023-08-21T11:10:22;100895.86;;;23.36;65.06
67987;BME280;54767;53.800;15.956;2023-08-21T11:12:56;100904.80;;;23.45;65.34
67987;BME280;54767;53.800;15.956;2023-08-21T11:15:28;100906.94;;;23.50;64.86
67987;BME280;54767;53.800;15.956;2023-08-21T11:18:05;100904.73;;;23.56;64.88
67987;BME280;54767;53.800;15.956;2023-08-21T11:20:35;100904.45;;;23.62;64.98
67987;BME280;54767;53.800;15.956;2023-08-21T11:23:09;100894.77;;;23.67;64.99
67987;BME280;54767;53.800;15.956;2023-08-21T11:25:40;100888.36;;;23.71;64.74
67987;BME280;54767;53.800;15.956;2023-08-21T11:28:09;100888.87;;;23.77;64.59
67987;BME280;54767;53.800;15.956;2023-08-21T11:30:38;100888.20;;;23.80;64.35
67987;BME280;54767;53.800;15.956;2023-08-21T11:33:11;100885.38;;;23.79;64.25
67987;BME280;54767;53.800;15.956;2023-08-21T11:35:39;100886.94;;;23.76;63.77
67987;BME280;54767;53.800;15.956;2023-08-21T11:38:18;100881.85;;;23.74;64.01
67987;BME280;54767;53.800;15.956;2023-08-21T11:40:59;100884.27;;;23.76;63.82
67987;BME280;54767;53.800;15.956;2023-08-21T11:43:41;100881.98;;;23.79;63.72
67987;BME280;54767;53.800;15.956;2023-08-21T11:46:10;100878.02;;;23.84;63.97
67987;BME280;54767;53.800;15.956;2023-08-21T11:48:39;100880.50;;;23.88;63.76
67987;BME280;54767;53.800;15.956;2023-08-21T11:51:07;100881.42;;;23.92;63.96
67987;BME280;54767;53.800;15.956;2023-08-21T11:53:47;100881.63;;;23.95;63.37
67987;BME280;54767;53.800;15.956;2023-08-21T11:56:16;100886.98;;;23.96;63.03
67987;BME280;54767;53.800;15.956;2023-08-21T11:58:46;100883.11;;;23.94;63.26
67987;BME280;54767;53.800;15.956;2023-08-21T12:01:17;100881.69;;;23.94;63.67
67987;BME280;54767;53.800;15.956;2023-08-21T12:03:45;100883.28;;;23.94;63.61
67987;BME280;54767;53.800;15.956;2023-08-21T12:06:17;100883.66;;;23.98;63.81
67987;BME280;54767;53.800;15.956;2023-08-21T12:09:04;100881.08;;;24.04;63.64
67987;BME280;54767;53.800;15.956;2023-08-21T12:11:32;100878.55;;;24.08;63.47
67987;BME280;54767;53.800;15.956;2023-08-21T12:14:20;100879.77;;;24.13;63.27
67987;BME280;54767;53.800;15.956;2023-08-21T12:16:47;100878.67;;;24.18;62.90
67987;BME280;54767;53.800;15.956;2023-08-21T12:19:17;100877.80;;;24.22;62.52
67987;BME280;54767;53.800;15.956;2023-08-21T12:21:43;100875.52;;;24.25;62.67
67987;BME280;54767;53.800;15.956;2023-08-21T12:24:10;100873.73;;;24.29;63.21
67987;BME280;54767;53.800;15.956;2023-08-21T12:26:38;100867.40;;;24.30;62.69
67987;BME280;54767;53.800;15.956;2023-08-21T12:29:17;100861.02;;;24.33;62.86
67987;BME280;54767;53.800;15.956;2023-08-21T12:31:44;100854.23;;;24.36;62.81
67987;BME280;54767;53.800;15.956;2023-08-21T12:34:11;100848.46;;;24.42;62.98
67987;BME280;54767;53.800;15.956;2023-08-21T12:36:40;100851.33;;;24.46;62.84
67987;BME280;54767;53.800;15.956;2023-08-21T12:39:08;100846.48;;;24.46;62.71
67987;BME280;54767;53.800;15.956;2023-08-21T12:41:36;100847.50;;;24.44;62.18
67987;BME280;54767;53.800;15.956;2023-08-21T12:44:04;100845.20;;;24.43;61.95
67987;BME280;54767;53.800;15.956;2023-08-21T12:46:31;100839.96;;;24.44;61.56
67987;BME280;54767;53.800;15.956;2023-08-21T12:48:58;100842.90;;;24.43;61.51
67987;BME280;54767;53.800;15.956;2023-08-21T12:51:28;100848.60;;;24.43;61.56
67987;BME280;54767;53.800;15.956;2023-08-21T12:53:56;100861.60;;;24.44;61.56
67987;BME280;54767;53.800;15.956;2023-08-21T12:56:23;100869.52;;;24.39;59.99
67987;BME280;54767;53.800;15.956;2023-08-21T12:58:50;100865.77;;;24.26;59.53
67987;BME280;54767;53.800;15.956;2023-08-21T13:01:18;100861.33;;;24.09;60.12